Time;durP1;ratioP1;P1;durP2;ratioP2;P2;SDS_P1;SDS_P2;PMS_P1;PMS_P2;Temp;Humidity;BMP_temperature;BMP_pressure;BME280_temperature;BME280_humidity;BME280_pressure;Samples;Min_cycle;Max_cycle;Signal;HPM_P1;HPM_P2
2023/04/28 00:01:19;;;;;;;7.03;3.50;;;5.40;74.90;;;3.74;66.67;100660.16;10399425;28;96607;-83
2023/04/28 00:06:22;;;;;;;5.77;3.57;;;5.30;75.20;;;3.64;66.60;100656.50;10415884;28;96714;-83
2023/04/28 00:11:25;;;;;;;5.67;2.83;;;5.30;75.30;;;3.55;67.29;100665.06;10380749;27;97051;-83
2023/04/28 00:16:28;;;;;;;6.60;3.33;;;5.20;75.60;;;3.48;67.36;100662.06;10381596;28;96544;-83
2023/04/28 00:21:31;;;;;;;5.43;2.97;;;5.10;75.60;;;3.43;67.78;100661.56;10398568;28;96571;-83
2023/04/28 00:26:34;;;;;;;5.47;2.67;;;5.10;76.00;;;3.38;68.09;100669.75;10382687;28;96510;-84
2023/04/28 00:31:37;;;;;;;5.40;2.23;;;5.00;76.70;;;3.29;67.56;100664.31;10396633;28;98251;-82
2023/04/28 00:36:41;;;;;;;4.30;3.10;;;4.90;77.00;;;3.21;68.13;100657.00;10397908;28;96596;-84
2023/04/28 00:41:44;;;;;;;9.33;2.73;;;4.80;78.10;;;3.15;68.53;100662.69;10382597;28;96658;-83
2023/04/28 00:46:47;;;;;;;5.20;2.23;;;4.70;78.60;;;3.12;68.69;100671.63;10427528;27;96513;-81
2023/04/28 00:51:50;;;;;;;3.27;1.77;;;4.70;79.20;;;3.15;68.13;100663.50;10398791;28;96406;-81
2023/04/28 00:56:54;;;;;;;3.90;2.00;;;4.70;78.60;;;3.20;67.92;100665.81;10398080;27;96636;-84
2023/04/28 01:01:58;;;;;;;5.13;2.80;;;4.80;79.00;;;3.23;67.60;100674.31;10372911;28;96946;-84
2023/04/28 01:07:01;;;;;;;6.07;2.33;;;4.80;78.10;;;3.23;67.66;100681.34;10381006;28;97136;-82
2023/04/28 01:12:05;;;;;;;3.40;1.70;;;4.80;78.30;;;3.18;67.54;100686.94;10368272;28;98242;-81
2023/04/28 01:17:09;;;;;;;6.13;2.50;;;4.80;78.70;;;3.08;67.92;100679.81;10415804;27;96595;-82
2023/04/28 01:22:15;;;;;;;5.97;2.83;;;4.70;79.00;;;3.00;68.24;100685.63;10414428;28;96477;-83
2023/04/28 01:27:18;;;;;;;8.30;2.60;;;4.60;79.30;;;2.95;68.60;100699.06;10384974;28;98684;-84
2023/04/28 01:32:20;;;;;;;3.10;1.90;;;4.60;79.40;;;2.87;68.66;100698.72;10396372;28;96460;-82
2023/04/28 01:37:24;;;;;;;3.73;2.63;;;4.50;79.70;;;2.80;69.04;100686.97;10393799;28;96773;-83
2023/04/28 01:42:27;;;;;;;4.53;2.10;;;4.40;79.70;;;2.72;69.56;100684.06;10395767;28;96703;-83
2023/04/28 01:47:30;;;;;;;4.67;2.60;;;4.40;80.40;;;2.66;70.00;100693.19;10357888;28;97586;-83
2023/04/28 01:52:34;;;;;;;3.10;2.10;;;4.30;80.20;;;2.61;70.00;100689.19;10370570;28;96606;-82
2023/04/28 01:57:36;;;;;;;6.87;3.10;;;4.20;80.70;;;2.51;69.93;100693.38;10401229;28;96623;-82
2023/04/28 02:02:39;;;;;;;4.90;2.57;;;4.10;81.20;;;2.44;70.62;100703.47;10376267;28;98294;-82
2023/04/28 02:07:43;;;;;;;3.67;2.20;;;4.10;81.70;;;2.34;70.83;100700.63;10410181;28;96660;-82
2023/04/28 02:12:46;;;;;;;4.07;2.10;;;3.90;82.50;;;2.28;71.31;100697.56;10393756;28;97258;-82
2023/04/28 02:17:49;;;;;;;5.77;2.63;;;3.90;82.80;;;2.19;71.67;100696.41;10410056;28;96863;-82
2023/04/28 02:22:52;;;;;;;7.50;3.57;;;3.80;83.30;;;2.15;71.85;100702.78;10395399;28;96754;-82
2023/04/28 02:27:56;;;;;;;6.30;3.73;;;3.80;83.30;;;2.10;71.72;100704.88;10380112;28;96701;-82
2023/04/28 02:32:59;;;;;;;5.97;3.53;;;3.70;83.30;;;2.05;71.85;100701.72;10393952;27;96626;-82
2023/04/28 02:38:02;;;;;;;8.13;4.37;;;3.70;83.50;;;2.04;71.86;100707.88;10390868;28;97267;-82
2023/04/28 02:43:05;;;;;;;7.83;3.60;;;3.60;83.90;;;2.00;72.17;100709.03;10384449;28;96747;-82
2023/04/28 02:48:08;;;;;;;10.63;5.33;;;3.60;84.40;;;1.97;72.49;100709.22;10384285;28;97249;-82
2023/04/28 02:53:12;;;;;;;7.70;4.67;;;3.60;84.70;;;1.97;72.78;100698.75;10400664;28;97265;-82
2023/04/28 02:58:16;;;;;;;7.57;3.90;;;3.60;84.70;;;1.92;72.83;100696.44;10385295;28;96607;-82
2023/04/28 03:03:20;;;;;;;7.30;3.40;;;3.60;85.80;;;1.90;73.19;100700.09;10384188;28;96666;-82
2023/04/28 03:08:24;;;;;;;7.03;2.93;;;3.50;85.80;;;1.80;73.57;100700.72;10399089;28;97988;-82
2023/04/28 03:13:28;;;;;;;6.60;3.47;;;3.40;86.90;;;1.73;74.04;100707.25;10385682;28;96936;-82
2023/04/28 03:18:32;;;;;;;7.40;3.10;;;3.40;87.30;;;1.75;74.37;100704.56;10395574;28;96784;-83
2023/04/28 03:23:35;;;;;;;5.67;2.90;;;3.40;87.50;;;1.73;73.77;100704.63;10384882;28;96627;-83
2023/04/28 03:28:38;;;;;;;6.53;3.20;;;3.40;87.30;;;1.72;74.39;100705.59;10399267;28;97059;-83
2023/04/28 03:33:44;;;;;;;5.87;2.97;;;3.40;87.10;;;1.75;74.90;100701.94;10398537;27;97274;-83
2023/04/28 03:38:47;;;;;;;4.80;3.03;;;3.40;87.60;;;1.80;74.39;100711.19;10383895;28;96789;-83
2023/04/28 03:43:52;;;;;;;6.37;2.83;;;3.40;87.60;;;1.80;74.07;100710.31;10351272;28;96582;-82
2023/04/28 03:48:55;;;;;;;6.93;3.83;;;3.50;87.80;;;1.83;74.20;100715.38;10382820;28;96868;-83
2023/04/28 03:53:58;;;;;;;6.37;3.77;;;3.50;87.80;;;1.85;73.62;100722.19;10382895;28;96673;-82
2023/04/28 03:59:01;;;;;;;6.10;2.87;;;3.50;88.10;;;1.85;73.47;100714.31;10399834;28;97708;-82
2023/04/28 04:04:04;;;;;;;6.47;3.13;;;3.50;89.80;;;1.92;73.76;100721.78;10351650;28;96486;-82
2023/04/28 04:09:07;;;;;;;5.33;3.17;;;3.50;89.60;;;2.07;73.41;100724.25;10371835;28;97942;-82
2023/04/28 04:14:10;;;;;;;6.80;3.73;;;3.60;89.40;;;2.25;73.14;100730.06;10388561;28;97358;-82
2023/04/28 04:19:13;;;;;;;9.83;2.73;;;3.80;89.00;;;2.47;72.96;100732.13;10397902;28;96662;-83
2023/04/28 04:24:16;;;;;;;6.33;2.90;;;4.00;89.10;;;2.68;73.02;100727.19;10416429;28;98064;-83
2023/04/28 04:29:20;;;;;;;7.67;4.00;;;4.20;89.10;;;2.85;72.47;100732.13;10397130;28;96881;-84
2023/04/28 04:34:23;;;;;;;5.70;3.13;;;4.40;88.60;;;3.11;72.57;100724.22;10381757;28;96756;-83
2023/04/28 04:39:26;;;;;;;6.93;4.20;;;4.60;89.20;;;3.35;72.14;100726.91;10377303;28;96606;-83
2023/04/28 04:44:29;;;;;;;6.60;3.27;;;4.80;89.10;;;3.60;71.79;100728.63;10364408;28;96736;-83
2023/04/28 04:49:32;;;;;;;8.03;4.30;;;5.00;89.90;;;3.79;70.95;100722.91;10393692;28;98597;-83
2023/04/28 04:54:35;;;;;;;12.40;5.13;;;5.30;88.90;;;3.95;70.74;100721.66;10395910;28;96636;-83
2023/04/28 04:59:38;;;;;;;10.60;5.13;;;5.40;89.10;;;4.09;71.22;100725.91;10398704;28;96780;-84
2023/04/28 05:04:41;;;;;;;10.50;4.80;;;5.60;90.00;;;4.28;71.95;100723.59;10395358;28;97000;-84
2023/04/28 05:09:44;;;;;;;9.87;4.50;;;5.70;89.80;;;4.53;71.63;100727.00;10410405;28;97507;-82
2023/04/28 05:14:47;;;;;;;7.53;5.00;;;6.00;90.20;;;4.78;70.89;100732.06;10395840;28;96889;-85
2023/04/28 05:19:50;;;;;;;7.93;4.60;;;6.20;89.90;;;5.03;71.09;100738.91;10395101;27;96703;-84
2023/04/28 05:24:53;;;;;;;11.10;5.77;;;6.50;90.10;;;5.19;70.69;100737.72;10409499;28;96666;-83
2023/04/28 05:29:58;;;;;;;11.67;5.80;;;6.70;90.20;;;5.36;70.89;100742.53;10376031;28;97110;-83
2023/04/28 05:35:02;;;;;;;9.70;5.23;;;6.80;90.30;;;5.59;70.68;100743.34;10377708;27;98238;-83
2023/04/28 05:40:06;;;;;;;8.50;4.60;;;7.00;90.70;;;5.82;70.02;100746.78;10372422;28;98632;-81
2023/04/28 05:45:10;;;;;;;13.13;5.70;;;7.30;90.40;;;6.02;68.63;100740.72;10400094;28;96728;-87
2023/04/28 05:50:13;;;;;;;9.23;4.00;;;7.50;89.80;;;6.25;66.62;100751.22;10393748;28;97945;-81
2023/04/28 05:55:16;;;;;;;5.37;3.83;;;7.70;88.50;;;6.39;63.59;100741.16;10389248;27;96863;-90
2023/04/28 06:00:21;;;;;;;12.53;4.60;;;7.80;86.60;;;6.70;62.85;100751.81;10396904;28;96754;-88
2023/04/28 06:05:25;;;;;;;9.87;3.60;;;8.20;85.70;;;6.96;61.49;100747.81;10389645;28;97451;-90
2023/04/28 06:10:28;;;;;;;7.50;3.60;;;8.40;84.60;;;7.18;60.44;100749.41;10424481;28;96619;-89
2023/04/28 06:15:32;;;;;;;5.03;3.27;;;8.60;83.50;;;7.34;60.07;100745.47;10383304;28;96578;-96
2023/04/28 06:20:36;;;;;;;6.33;3.47;;;8.80;82.70;;;7.55;59.35;100754.13;10396345;28;97963;-94
2023/04/28 06:25:39;;;;;;;9.00;3.87;;;9.00;82.20;;;7.79;57.55;100746.69;10404191;28;96537;-94
2023/04/28 06:30:42;;;;;;;7.90;3.73;;;9.20;80.40;;;7.99;57.37;100742.28;10377613;28;96500;-94
2023/04/28 06:35:45;;;;;;;9.33;4.47;;;9.30;80.10;;;8.28;56.77;100744.94;10393679;27;96615;-90
2023/04/28 06:40:48;;;;;;;6.40;3.50;;;9.60;79.50;;;8.63;56.54;100754.13;10428516;27;96604;-95
2023/04/28 06:45:51;;;;;;;5.63;3.40;;;10.00;79.10;;;8.81;55.31;100741.81;10434922;28;97196;-95
2023/04/28 06:50:54;;;;;;;6.07;3.27;;;10.20;77.40;;;9.03;53.94;100747.75;10416419;28;96328;-95
2023/04/28 06:55:57;;;;;;;6.83;3.67;;;10.40;76.10;;;9.20;52.49;100747.00;10415717;27;96517;-94
2023/04/28 07:01:02;;;;;;;8.07;3.93;;;10.60;75.30;;;9.32;52.09;100740.53;10413914;28;97177;-94
2023/04/28 07:06:06;;;;;;;6.37;3.10;;;10.80;74.00;;;9.68;51.49;100726.53;10442579;28;95688;-94
2023/04/28 07:11:09;;;;;;;7.87;4.20;;;11.00;73.50;;;9.96;50.84;100724.69;10403521;28;96233;-95
2023/04/28 07:16:12;;;;;;;9.17;3.27;;;11.30;72.50;;;10.17;49.22;100727.84;10391467;28;96766;-95
2023/04/28 07:21:16;;;;;;;6.97;3.20;;;11.50;70.80;;;10.39;48.12;100721.28;10419216;27;97310;-91
2023/04/28 07:26:19;;;;;;;6.07;2.90;;;11.80;70.00;;;10.70;47.17;100719.84;10401790;28;96478;-90
2023/04/28 07:31:24;;;;;;;4.13;2.40;;;12.10;68.50;;;10.99;46.99;100724.84;10400848;28;96647;-91
2023/04/28 07:36:28;;;;;;;5.33;3.10;;;12.30;67.30;;;11.28;46.84;100717.50;10366201;28;97010;-91
2023/04/28 07:41:38;;;;;;;5.97;3.10;;;12.60;67.30;;;11.65;46.85;100704.66;10402927;28;97697;-89
2023/04/28 07:46:41;;;;;;;7.63;3.42;;;12.90;66.90;;;11.77;45.04;100697.19;10400627;27;96510;-86
2023/04/28 07:51:45;;;;;;;8.20;3.30;;;13.20;65.20;;;11.76;44.09;100701.69;10369875;27;96848;-86
2023/04/28 07:56:52;;;;;;;5.50;2.63;;;13.30;63.40;;;11.94;44.06;100690.09;10371009;27;96729;-88
2023/04/28 08:01:55;;;;;;;5.90;3.47;;;13.40;62.80;;;12.04;43.81;100678.28;10400008;27;96518;-90
2023/04/28 08:06:59;;;;;;;7.87;3.90;;;13.50;62.50;;;12.16;44.89;100676.13;10392011;28;96611;-87
2023/04/28 08:12:03;;;;;;;6.50;3.60;;;13.60;63.00;;;12.41;44.56;100668.94;10365328;27;97057;-95
2023/04/28 08:17:05;;;;;;;4.93;3.37;;;13.80;62.60;;;12.82;44.00;100660.88;10394098;27;97036;-87
2023/04/28 08:22:08;;;;;;;6.35;2.88;;;14.10;62.50;;;13.06;43.47;100658.09;10399893;28;97333;-87
2023/04/28 08:27:11;;;;;;;4.75;3.10;;;14.40;61.20;;;13.33;41.87;100648.88;10415514;28;98462;-87
2023/04/28 08:32:15;;;;;;;6.57;3.50;;;14.70;60.60;;;13.36;41.31;100640.50;10381363;27;96934;-92
2023/04/28 08:37:18;;;;;;;5.70;3.03;;;14.80;58.90;;;13.66;41.35;100629.97;10382811;28;96616;-92
2023/04/28 08:42:21;;;;;;;12.90;3.67;;;15.00;59.20;;;13.94;40.02;100630.28;10384426;28;97341;-91
2023/04/28 08:47:35;;;;;;;6.95;2.95;;;15.30;58.40;;;14.30;38.14;100621.59;10383609;28;96484;-89
2023/04/28 08:52:41;;;;;;;5.40;2.97;;;15.60;56.40;;;14.66;37.82;100614.56;10395227;27;96683;-89
2023/04/28 08:57:48;;;;;;;6.95;2.72;;;15.80;56.50;;;14.98;37.73;100617.88;10404263;28;98356;-91
2023/04/28 09:02:51;;;;;;;8.63;2.50;;;16.10;55.90;;;15.37;36.50;100611.34;10393397;28;96910;-91
2023/04/28 09:07:55;;;;;;;5.93;3.05;;;16.50;54.80;;;15.58;35.23;100605.19;10390148;28;96758;-89
2023/04/28 09:12:58;;;;;;;5.18;2.60;;;16.70;52.70;;;15.91;34.87;100602.84;10395901;27;97172;-90
2023/04/28 09:18:03;;;;;;;5.88;2.72;;;17.00;52.80;;;16.09;32.96;100605.91;10382881;28;97466;-89
2023/04/28 09:23:21;;;;;;;5.85;3.13;;;17.30;51.00;;;16.07;33.48;100605.25;10390997;28;97745;-91
2023/04/28 09:28:24;;;;;;;8.18;3.17;;;17.30;50.50;;;16.09;32.49;100602.41;10382530;28;96550;-92
2023/04/28 09:33:27;;;;;;;6.75;3.58;;;17.40;49.00;;;15.93;31.79;100595.44;10349383;28;96582;-92
2023/04/28 09:38:30;;;;;;;7.88;2.83;;;17.40;48.80;;;16.17;33.16;100591.50;10383621;28;96518;-92
2023/04/28 09:43:34;;;;;;;6.05;3.00;;;17.50;49.10;;;16.46;32.15;100585.13;10406954;27;96593;-95
2023/04/28 09:48:38;;;;;;;6.40;3.33;;;17.80;48.50;;;16.44;31.46;100571.09;10408320;28;96577;-88
2023/04/28 09:53:41;;;;;;;5.40;2.67;;;17.80;47.90;;;16.48;31.98;100577.69;10394740;28;96576;-94
2023/04/28 09:58:46;;;;;;;6.55;3.15;;;17.80;48.00;;;16.64;31.12;100566.66;10375240;28;96705;-88
2023/04/28 10:03:52;;;;;;;6.22;2.75;;;17.90;47.50;;;16.73;31.71;100560.13;10382988;28;97513;-90
2023/04/28 10:08:57;;;;;;;6.53;2.50;;;17.90;47.40;;;16.88;30.97;100548.41;10399557;28;98498;-94
2023/04/28 10:14:01;;;;;;;5.07;2.72;;;18.10;47.10;;;16.90;30.04;100543.66;10398205;28;96678;-91
2023/04/28 10:19:04;;;;;;;8.93;2.95;;;18.20;46.00;;;16.72;30.14;100544.22;10378360;28;96947;-89
2023/04/28 10:24:17;;;;;;;7.65;3.17;;;18.20;46.00;;;16.87;31.38;100533.34;10375679;28;96546;-90
2023/04/28 10:29:26;;;;;;;5.25;2.65;;;18.20;46.60;;;17.34;31.45;100505.59;10399569;28;96601;-94
2023/04/28 10:34:30;;;;;;;4.03;2.45;;;18.50;47.20;;;17.48;31.33;100509.13;10383217;28;96597;-93
2023/04/28 10:39:33;;;;;;;5.57;2.92;;;18.70;46.70;;;17.57;30.81;100497.13;10401616;28;96626;-94
2023/04/28 10:44:42;;;;;;;4.45;3.00;;;18.90;46.20;;;17.50;30.08;100493.59;10383048;28;96605;-89
2023/04/28 10:49:57;;;;;;;5.88;2.70;;;18.90;45.60;;;17.61;30.92;100501.06;10416897;28;96674;-91
2023/04/28 10:55:35;;;;;;;5.28;2.72;;;19.00;46.30;;;17.34;29.52;100478.72;10397721;27;96922;-87
2023/04/28 11:00:39;;;;;;;9.10;3.10;;;18.90;45.10;;;17.42;29.87;100483.06;10415781;28;96759;-86
2023/04/28 11:06:27;;;;;;;6.95;2.60;;;18.90;45.60;;;17.45;30.15;100463.84;10391950;28;96780;-89
2023/04/28 11:11:35;;;;;;;12.18;2.95;;;18.90;45.50;;;17.42;29.64;100461.59;10414075;28;96512;-88
2023/04/28 11:17:02;;;;;;;4.70;2.60;;;18.90;45.40;;;17.46;30.29;100457.47;10393045;28;97399;-90
2023/04/28 11:22:12;;;;;;;5.47;2.78;;;18.80;45.50;;;17.41;30.28;100460.75;10395602;27;96816;-90
2023/04/28 11:27:26;;;;;;;6.70;2.90;;;18.80;45.30;;;17.17;29.80;100445.25;10419366;28;98545;-89
2023/04/28 11:32:32;;;;;;;5.53;2.42;;;18.70;45.10;;;17.09;30.16;100454.28;10382332;28;96723;-94
2023/04/28 11:37:35;;;;;;;5.35;2.50;;;18.50;45.20;;;16.95;31.34;100460.69;10401254;28;96612;-92
2023/04/28 11:42:47;;;;;;;5.55;2.47;;;18.40;45.70;;;16.87;30.43;100459.03;10402992;28;96630;-89
2023/04/28 11:47:51;;;;;;;4.57;2.38;;;18.30;45.40;;;16.80;31.30;100453.63;10372358;28;96599;-90
2023/04/28 11:52:54;;;;;;;4.07;2.20;;;18.20;46.10;;;16.93;31.51;100452.03;10393123;28;98540;-88
2023/04/28 11:58:26;;;;;;;4.50;2.20;;;18.30;46.30;;;17.27;31.61;100446.50;10386169;28;96780;-87
2023/04/28 12:03:29;;;;;;;7.18;2.25;;;18.60;46.40;;;17.56;30.60;100431.81;10391036;28;96770;-89
2023/04/28 12:08:33;;;;;;;4.15;2.00;;;19.00;45.80;;;17.33;30.84;100426.88;10406411;28;96673;-87
2023/04/28 12:13:37;;;;;;;4.60;2.05;;;18.90;45.80;;;17.09;31.12;100417.56;10401260;28;96622;-89
2023/04/28 12:19:01;;;;;;;5.93;1.95;;;18.70;45.80;;;17.13;31.97;100421.47;10364652;28;96689;-82
2023/04/28 12:24:19;;;;;;;4.85;2.25;;;18.50;46.40;;;17.04;30.97;100417.34;10398428;28;96612;-88
2023/04/28 12:29:39;;;;;;;3.90;2.03;;;18.50;45.50;;;16.77;31.71;100416.47;10394919;28;96747;-86
2023/04/28 12:34:45;;;;;;;6.22;2.28;;;18.20;46.40;;;16.58;32.22;100403.78;10373819;27;97876;-85
2023/04/28 12:39:48;;;;;;;5.35;2.05;;;18.00;46.80;;;16.65;33.58;100396.59;10399626;28;97570;-83
2023/04/28 12:44:51;;;;;;;4.60;2.13;;;18.00;47.70;;;16.82;32.63;100383.66;10393992;28;96578;-86
2023/04/28 12:49:54;;;;;;;4.63;2.40;;;18.10;47.10;;;17.12;33.48;100370.66;10362276;28;96632;-89
2023/04/28 12:54:59;;;;;;;5.97;2.10;;;18.40;48.00;;;17.53;31.69;100337.38;10381530;28;96543;-92
2023/04/28 13:00:03;;;;;;;4.53;2.03;;;19.00;47.00;;;17.88;32.08;100329.88;10382648;28;96713;-93
2023/04/28 13:05:08;;;;;;;4.53;2.35;;;19.30;46.80;;;17.99;31.12;100314.91;10415121;28;96516;-88
2023/04/28 13:10:12;;;;;;;5.20;2.35;;;19.40;46.40;;;17.87;31.02;100315.59;10398312;28;96736;-89
2023/04/28 13:15:15;;;;;;;4.05;2.25;;;19.40;45.80;;;17.80;31.54;100317.47;10398124;28;97788;-90
2023/04/28 13:20:18;;;;;;;5.40;3.08;;;19.30;46.90;;;17.77;30.92;100315.22;10382224;28;96471;-88
2023/04/28 13:25:22;;;;;;;6.35;1.85;;;19.30;45.90;;;18.00;31.35;100328.16;10413506;28;97427;-90
2023/04/28 13:30:26;;;;;;;5.45;2.03;;;19.50;46.20;;;18.07;31.35;100320.06;10400113;28;97209;-89
2023/04/28 13:35:29;;;;;;;4.40;2.50;;;19.60;46.00;;;18.05;31.28;100319.44;10371212;28;96723;-88
2023/04/28 13:40:33;;;;;;;6.20;1.80;;;19.60;45.80;;;18.06;31.73;100310.34;10380344;28;96564;-90
2023/04/28 13:45:36;;;;;;;4.32;1.92;;;19.70;46.20;;;18.24;31.58;100285.44;10377763;28;98762;-90
2023/04/28 13:50:39;;;;;;;9.30;4.50;;;19.90;46.10;;;18.18;31.77;100292.50;10399745;28;96507;-90
2023/04/28 13:55:43;;;;;;;5.45;2.90;;;19.90;46.00;;;18.15;31.68;100282.97;10362479;28;96638;-92
2023/04/28 14:00:46;;;;;;;4.00;2.28;;;19.80;45.90;;;18.30;31.96;100265.75;10368073;28;96572;-90
2023/04/28 14:05:54;;;;;;;3.95;2.10;;;19.90;46.30;;;18.50;31.74;100257.53;10389200;28;96505;-92
2023/04/28 14:10:58;;;;;;;5.30;1.85;;;20.20;46.20;;;18.43;31.30;100260.28;10381034;28;96627;-90
2023/04/28 14:16:01;;;;;;;4.18;2.03;;;20.10;45.80;;;18.44;31.64;100268.13;10389070;28;96626;-91
2023/04/28 14:21:06;;;;;;;6.03;2.50;;;20.10;46.10;;;18.50;31.09;100273.69;10373795;28;96775;-93
2023/04/28 14:26:10;;;;;;;12.73;8.60;;;20.10;45.50;;;18.24;31.19;100256.69;10394591;28;98382;-92
2023/04/28 14:31:13;;;;;;;6.90;2.72;;;19.90;45.40;;;18.04;31.96;100258.63;10347286;28;96469;-90
2023/04/28 14:36:16;;;;;;;3.05;1.70;;;19.70;45.90;;;17.81;32.45;100251.94;10369668;28;97214;-90
2023/04/28 14:41:19;;;;;;;8.15;1.98;;;19.40;46.40;;;17.61;32.51;100256.53;10400249;28;96691;-90
2023/04/28 14:46:23;;;;;;;3.78;2.28;;;19.10;46.70;;;17.32;32.86;100256.00;10394130;28;96512;-93
2023/04/28 14:51:26;;;;;;;8.88;2.35;;;18.80;47.00;;;17.10;33.44;100246.56;10388704;27;96663;-94
2023/04/28 14:56:29;;;;;;;4.07;2.30;;;18.50;47.50;;;17.00;33.86;100240.78;10384963;28;96564;-91
2023/04/28 15:01:35;;;;;;;5.13;1.67;;;18.40;48.00;;;16.85;34.16;100233.78;10394445;28;97544;-90
2023/04/28 15:06:38;;;;;;;4.45;1.85;;;18.20;48.20;;;16.78;34.54;100230.25;10399273;28;98411;-90
2023/04/28 15:11:42;;;;;;;8.50;2.20;;;18.20;48.60;;;16.71;34.90;100229.44;10367701;28;96710;-91
2023/04/28 15:16:46;;;;;;;5.18;1.73;;;18.10;48.90;;;16.73;35.44;100227.41;10405116;28;96495;-92
2023/04/28 15:21:49;;;;;;;5.82;1.63;;;18.10;49.10;;;16.71;35.21;100213.34;10392731;27;97053;-94
2023/04/28 15:26:53;;;;;;;5.45;2.60;;;18.10;49.20;;;16.70;35.71;100214.38;10406209;28;96839;-93
2023/04/28 15:31:56;;;;;;;6.60;2.20;;;18.00;49.40;;;16.63;35.62;100218.91;10417075;28;99244;-93
2023/04/28 15:37:00;;;;;;;2.90;1.60;;;17.90;49.50;;;16.59;36.01;100223.00;10381204;28;98227;-93
2023/04/28 15:42:04;;;;;;;7.38;3.45;;;17.90;49.90;;;16.46;36.60;100217.66;10394869;27;98275;-93
2023/04/28 15:47:07;;;;;;;8.43;4.45;;;17.80;50.30;;;16.39;36.86;100206.09;10394288;28;96587;-91
2023/04/28 15:52:11;;;;;;;7.18;3.15;;;17.70;50.70;;;16.30;37.39;100200.09;10413461;28;98683;-90
2023/04/28 15:57:14;;;;;;;5.28;2.42;;;17.60;50.90;;;16.22;37.62;100194.94;10386120;28;96566;-91
2023/04/28 16:02:20;;;;;;;10.82;3.58;;;17.50;51.20;;;16.19;37.70;100188.16;10378962;28;96799;-90
2023/04/28 16:07:23;;;;;;;4.15;2.10;;;17.50;51.40;;;16.17;37.92;100181.31;10395061;28;97961;-92
2023/04/28 16:12:26;;;;;;;3.80;1.83;;;17.50;51.50;;;16.10;38.16;100178.63;10404049;28;96628;-88
2023/04/28 16:17:29;;;;;;;6.55;2.67;;;17.40;51.70;;;16.05;38.41;100175.72;10379835;28;96622;-88
2023/04/28 16:22:34;;;;;;;7.60;3.58;;;17.40;51.90;;;16.01;38.64;100180.69;10399727;28;96582;-86
2023/04/28 16:27:39;;;;;;;12.18;3.85;;;17.40;52.20;;;15.98;39.14;100173.06;10399910;28;96755;-86
2023/04/28 16:32:42;;;;;;;4.20;2.45;;;17.30;52.60;;;15.96;39.06;100152.84;10363618;28;96868;-85
2023/04/28 16:37:45;;;;;;;5.35;2.50;;;17.30;52.90;;;15.88;39.56;100137.78;10381869;28;96721;-87
2023/04/28 16:42:48;;;;;;;6.10;2.88;;;17.20;52.90;;;15.83;39.42;100131.38;10398376;28;96604;-88
2023/04/28 16:47:51;;;;;;;7.93;3.70;;;17.20;53.10;;;15.75;39.76;100137.75;10384425;28;96502;-87
2023/04/28 16:52:54;;;;;;;10.02;3.60;;;17.10;53.30;;;15.69;40.75;100128.66;10398333;27;96616;-87
2023/04/28 16:57:58;;;;;;;4.70;3.00;;;17.00;53.90;;;15.62;41.31;100117.13;10383407;28;96538;-87
2023/04/28 17:03:01;;;;;;;4.38;2.72;;;17.00;54.30;;;15.51;41.03;100109.63;10398134;28;97318;-87
2023/04/28 17:08:05;;;;;;;8.27;2.50;;;16.80;54.50;;;15.39;41.48;100101.38;10391693;28;96500;-87
2023/04/28 17:13:08;;;;;;;6.38;2.50;;;16.70;54.80;;;15.33;41.84;100091.47;10400124;28;96522;-86
2023/04/28 17:18:11;;;;;;;3.85;2.40;;;16.70;55.00;;;15.26;41.96;100091.44;10374862;28;96748;-87
2023/04/28 17:23:14;;;;;;;6.47;2.42;;;16.60;55.20;;;15.23;42.08;100104.41;10383000;28;96945;-87
2023/04/28 17:28:17;;;;;;;5.65;2.53;;;16.50;55.40;;;15.17;43.00;100106.06;10365571;28;96562;-87
2023/04/28 17:33:21;;;;;;;7.50;3.50;;;16.50;55.80;;;15.13;43.70;100104.78;10398230;28;96687;-88
2023/04/28 17:38:24;;;;;;;6.63;3.05;;;16.40;56.10;;;15.08;44.04;100082.31;10395560;28;96579;-86
2023/04/28 17:43:28;;;;;;;7.63;3.83;;;16.40;56.60;;;15.01;45.38;100087.66;10382224;28;96592;-85
2023/04/28 17:48:31;;;;;;;11.93;5.68;;;16.30;57.00;;;14.93;44.78;100082.44;10365063;28;96828;-86
2023/04/28 17:53:35;;;;;;;14.07;7.50;;;16.20;57.20;;;14.86;44.71;100082.41;10409048;27;97277;-86
2023/04/28 17:58:39;;;;;;;10.85;6.07;;;16.20;57.40;;;14.79;44.98;100091.44;10415807;27;96762;-86
2023/04/28 18:03:42;;;;;;;7.22;3.78;;;16.10;57.70;;;14.69;45.40;100111.38;10406354;27;96979;-86
2023/04/28 18:08:45;;;;;;;9.60;5.65;;;16.00;57.80;;;14.59;45.56;100110.88;10408879;28;96564;-85
2023/04/28 18:13:49;;;;;;;9.35;3.83;;;15.90;58.20;;;14.52;47.26;100110.03;10374644;28;96576;-86
2023/04/28 18:18:52;;;;;;;10.57;3.70;;;15.80;59.10;;;14.43;47.98;100116.50;10365783;28;96679;-86
2023/04/28 18:23:55;;;;;;;10.48;6.22;;;15.80;59.80;;;14.30;50.25;100113.72;10402522;28;96608;-86
2023/04/28 18:28:58;;;;;;;14.20;6.73;;;15.70;61.10;;;14.15;53.08;100114.66;10406612;28;97997;-87
2023/04/28 18:34:02;;;;;;;9.60;4.10;;;15.50;63.10;;;14.01;55.68;100118.22;10391474;28;96870;-86
2023/04/28 18:39:06;;;;;;;9.10;3.77;;;15.40;64.70;;;13.87;56.81;100116.44;10382095;28;97480;-86
2023/04/28 18:44:12;;;;;;;6.73;3.53;;;15.20;66.00;;;13.77;58.15;100126.63;10395231;28;96656;-86
2023/04/28 18:49:15;;;;;;;5.63;3.20;;;15.10;67.10;;;13.60;57.51;100132.19;10406277;27;97745;-86
2023/04/28 18:54:18;;;;;;;4.70;2.97;;;14.90;67.40;;;13.51;58.67;100124.50;10390854;28;98251;-85
2023/04/28 18:59:22;;;;;;;5.73;3.67;;;14.90;68.40;;;13.39;59.72;100125.00;10405601;28;99700;-86
2023/04/28 19:04:25;;;;;;;10.20;4.80;;;14.80;69.60;;;13.27;60.57;100131.00;10376706;28;98299;-86
2023/04/28 19:09:28;;;;;;;6.57;3.60;;;14.70;70.70;;;13.15;61.14;100140.47;10384475;27;98114;-85
2023/04/28 19:14:32;;;;;;;9.90;5.07;;;14.60;71.20;;;13.05;61.61;100138.91;10400107;27;96796;-86
2023/04/28 19:19:35;;;;;;;9.53;4.90;;;14.50;72.10;;;12.94;62.02;100136.69;10382599;28;96575;-86
2023/04/28 19:24:39;;;;;;;9.17;4.30;;;14.30;72.70;;;12.81;63.03;100139.19;10384038;27;96809;-86
2023/04/28 19:29:42;;;;;;;8.30;4.33;;;14.20;73.60;;;12.66;64.33;100149.03;10398970;28;98240;-86
2023/04/28 19:34:47;;;;;;;10.27;4.80;;;14.10;74.50;;;12.57;65.02;100148.25;10401364;28;96618;-86
2023/04/28 19:39:50;;;;;;;7.87;4.50;;;14.00;75.60;;;12.49;65.50;100151.03;10379570;27;98216;-86
2023/04/28 19:44:56;;;;;;;5.63;3.80;;;13.80;76.30;;;12.38;66.89;100146.94;10419418;27;96538;-85
2023/04/28 19:50:00;;;;;;;6.10;4.20;;;13.80;77.00;;;12.31;67.39;100132.69;10401478;28;96578;-86
2023/04/28 19:55:03;;;;;;;6.20;4.00;;;13.70;78.00;;;12.21;68.78;100121.47;10370932;28;98712;-86
2023/04/28 20:00:07;;;;;;;6.17;4.53;;;13.60;78.70;;;12.17;69.50;100117.50;10381033;28;97335;-85
2023/04/28 20:05:11;;;;;;;7.57;4.70;;;13.60;79.90;;;12.09;69.72;100112.25;10397226;28;97439;-81
2023/04/28 20:10:14;;;;;;;5.83;3.90;;;13.50;81.60;;;11.98;70.44;100111.66;10390706;27;96880;-81
2023/04/28 20:15:18;;;;;;;9.23;4.10;;;13.40;82.10;;;11.92;70.94;100104.38;10384579;27;96832;-82
2023/04/28 20:20:21;;;;;;;5.87;3.80;;;13.30;83.00;;;11.87;71.93;100101.41;10386506;28;96764;-81
2023/04/28 20:25:26;;;;;;;7.73;3.90;;;13.20;83.90;;;11.81;73.18;100112.78;10383683;28;96644;-81
2023/04/28 20:30:29;;;;;;;8.17;5.40;;;13.20;84.70;;;11.80;73.51;100119.09;10395910;28;96667;-81
2023/04/28 20:35:33;;;;;;;14.40;6.33;;;13.20;86.20;;;11.86;73.45;100110.41;10365318;28;96566;-81
2023/04/28 20:40:36;;;;;;;11.27;7.67;;;13.20;86.90;;;11.88;73.72;100113.75;10380483;27;97930;-81
2023/04/28 20:45:40;;;;;;;10.23;6.40;;;13.30;88.10;;;11.90;73.78;100111.72;10387214;28;97367;-82
2023/04/28 20:50:44;;;;;;;12.77;7.70;;;13.30;88.70;;;11.93;73.50;100108.69;10396432;28;96811;-80
2023/04/28 20:55:49;;;;;;;11.50;7.87;;;13.30;89.50;;;11.94;74.08;100104.22;10379566;28;98457;-82
2023/04/28 21:00:52;;;;;;;9.73;6.33;;;13.30;90.00;;;11.97;74.43;100112.66;10375737;28;96765;-81